• Join FlightAware (Why Join?)
  • Login
  • US Flag 
09:12PM EDT


 

Airport Tracker/Info


-or-


 

Live Flight TrackerFlight Track Log ✈ ASQ4577 ✈ 10-Jul-2013 ✈ KCLE - KALB

Flight Track Log - Related Links

Times and Time Zones

All times are in EDT time to prevent confusion due to time zone crossing. See the ASQ4577 flight status page for this flight to view local times or setup timezone preferences in your user account.

Time Position Orientation Groundspeed Altitude Reporting Facility
EDT Latitude Longitude Course Direction KTS MPH feet Rate Location/Type
09:37PM 41.3939 -81.8814 73° East 161 185 2,000  Level Cleveland Center
09:39PM 41.4158 -81.9619 290° West 181 208 5,300 2,280 Climbing Cleveland Center
09:40PM 41.7570 -81.4931 37° Northeast  Level FlightAware Approximate
09:40PM 41.4625 -81.9047 43° Northeast 118 136 8,000  Level Cleveland Center
09:40PM 41.5008 -81.8253 57° Northeast 202 232 9,900 1,500 Climbing Cleveland Center
09:41PM 41.8333 -81.3942 90° East  Level FlightAware Approximate
09:42PM 41.8507 -81.2469 73° East  Level FlightAware Approximate
09:42PM 41.5683 -81.7406 43° Northeast 272 313 11,100  Level Cleveland Center
09:42PM 41.6444 -81.6528 41° Northeast 333 383 12,200 1,320 Climbing Cleveland Center
09:44PM 41.7203 -81.5594 43° Northeast 360 414 13,800 1,500 Climbing Cleveland Center
09:44PM 41.8003 -81.4661 41° Northeast 373 429 15,300 1,560 Climbing Cleveland Center
09:45PM 41.8489 -81.3469 61° Northeast 367 422 16,900 1,560 Climbing Cleveland Center
09:47PM 41.8728 -81.2022 77° East 375 432 18,500 1,380 Climbing Cleveland Center
09:48PM 41.8964 -81.0544 78° East 395 455 19,800 1,200 Climbing Cleveland Center
09:48PM 41.9200 -80.9097 78° East 395 455 20,900 960 Climbing Cleveland Center
09:50PM 41.9411 -80.7731 78° East 407 468 21,800 960 Climbing Cleveland Center
09:50PM 41.9661 -80.6111 78° East 426 490 22,900 1,020 Climbing Cleveland Center
09:52PM 41.9911 -80.4519 78° East 435 501 23,900 1,020 Climbing Cleveland Center
09:52PM 42.0181 -80.2897 77° East 435 501 25,000 1,020 Climbing Cleveland Center
09:54PM 42.0425 -80.1219 79° East 448 516 26,000 1,020 Climbing Cleveland Center
09:55PM 42.0708 -79.9369 78° East 454 522 27,100 1,080 Climbing Cleveland Center
09:55PM 42.0967 -79.7717 78° East 449 517 28,200 1,020 Climbing Cleveland Center
09:57PM 42.1206 -79.6033 79° East 449 517 29,200 1,020 Climbing Cleveland Center
09:57PM 42.1439 -79.4378 79° East 449 517 30,300 900 Climbing Cleveland Center
09:59PM 42.1672 -79.2806 79° East 454 522 31,000 300 Climbing Cleveland Center
10:00PM 42.1922 -79.1033 79° East 465 535 31,000  Level Cleveland Center
10:00PM 42.2147 -78.9178 81° East 483 556 31,000  Level Cleveland Center
10:01PM 42.2408 -78.7181 80° East 488 562 31,000  Level Cleveland Center
10:02PM 42.2650 -78.5378 80° East 488 562 31,000  Level Cleveland Center
10:03PM 42.2867 -78.3547 81° East 488 562 31,000  Level Cleveland Center
10:04PM 42.3061 -78.1883 81° East 493 567 31,000  Level Cleveland Center
10:06PM 42.3272 -78.0050 81° East 493 567 31,000  Level Cleveland Center
10:06PM 42.3500 -77.8186 81° East 493 567 31,000 -180 Level Cleveland Center
10:08PM 42.3706 -77.6378 81° East 493 567 30,700 -600 Descending Cleveland Center
10:09PM 42.3928 -77.4539 81° East 493 567 29,800 -540 Descending Cleveland Center
10:11PM 42.4417 -77.0128 81° East 498 573 29,000 -300 Descending Boston Center
10:12PM 42.4614 -76.8311 82° East 498 573 29,000  Level Boston Center
10:13PM 42.4831 -76.6467 81° East 498 573 29,000  Level Boston Center
10:14PM 42.5003 -76.4592 83° East 498 573 29,000  Level Boston Center
10:15PM 42.5214 -76.2717 81° East 498 573 29,000  Level Boston Center
10:16PM 42.5400 -76.0811 82° East 498 573 29,000 -60 Level Boston Center
10:17PM 42.5583 -75.8933 82° East 498 573 28,900 -600 Descending Boston Center
10:18PM 42.5819 -75.6633 82° East 503 579 27,700 -1,500 Descending Boston Center
10:19PM 42.5969 -75.4919 83° East 513 590 26,000 -1,380 Descending Boston Center
10:20PM 42.6164 -75.3094 82° East 497 572 25,000 -1,080 Descending Boston Center
10:21PM 42.6333 -75.1297 83° East 491 565 23,900 -1,860 Descending Boston Center
10:22PM 42.6497 -74.9581 83° East 475 547 21,300 -2,940 Descending Boston Center
10:23PM 42.6583 -74.8428 84° East 449 517 19,400 -3,240 Descending Boston Center
10:24PM 42.6722 -74.6767 83° East 406 467 16,000 -3,060 Descending Boston Center
10:25PM 42.6875 -74.5331 82° East 383 441 13,000 -2,580 Descending Boston Center
10:25PM 42.6906 -74.4767 86° East 386 444 12,100 -1,620 Descending Boston Center
10:26PM 42.7369 -74.3314 66° East 348 400 10,500 -1,680 Descending Boston Center
10:27PM 42.7719 -74.2278 65° Northeast 319 367 8,800 -1,920 Descending Boston Center
10:28PM 42.8047 -74.1239 67° East 291 335 6,700 -1,740 Descending Boston Center
10:29PM 42.8331 -74.0369 66° East 284 327 5,400 -1,320 Descending Boston Center
10:30PM 42.8594 -73.9442 69° East 273 314 4,100 -1,200 Descending Boston Center
10:31PM 42.8836 -73.8456 71° East 246 283 3,100 -960 Descending Boston Center
10:32PM 42.8486 -73.8108 144° Southeast 193 222 2,200 -600 Descending Boston Center
10:33PM 42.8369 -73.7425 103° East 164 189 2,000 10,380 Descending Boston Center
10:34PM 42.8272 -73.6800 102° East 164 189 23,000 10,500 Climbing Boston Center
10:35PM 42.8175 -73.6147 101° East 164 189 23,000  Level Boston Center
10:36PM 42.8075 -73.5522 102° East 164 189 23,000  Level Boston Center
10:37PM 42.8056 -73.5381 101° East 164 189 23,000  Level Boston Center
10:39PM 42.7680 -73.7142 254° West  Level Estimated
10:46PM 42.7491 -73.8020 254° West  Level Estimated
10:47PM 42.7491 -73.8020 304° West  Level Estimated
10:48PM 42.7491 -73.8020 304° West  Level Estimated
10:49PM 42.7491 -73.8020 304° West  Level Estimated
10:50PM 42.7491 -73.8020 304° West  Level Estimated
10:51PM 42.7491 -73.8020 304° West  Level Estimated
10:52PM 42.7491 -73.8020 304° West  Level Estimated
10:53PM 42.7491 -73.8020 304° West  Level Estimated
10:54PM 42.7491 -73.8020 304° West  Level Estimated